Terminal Aerodrome Forecast
Issued by NWS Charleston, SC

Home | Current Version | Previous Version | Text Only | Print | Product List | Glossary On
Versions: 1 2 3 4 5 6 7 8 9 10 11 12 13 14 15 16 17 18
000
FTUS42 KCHS 291837 AAA
TAFCHS
TAF AMD
KCHS 291837Z 2919/3018 08012G18KT P6SM VCSH SCT030 BKN045
      TEMPO 2919/2921 -SHRA
     FM292100 11012G18KT P6SM SCT040 BKN060
     FM300200 08006KT P6SM SCT020
     FM300800 VRB04KT P6SM VCSH SCT010 BKN035
     FM301500 11010KT P6SM SCT020 BKN040=

USA.gov is the U.S. government's official web portal to all federal, state and local government web resources and services.